Latest Coastal Weather Observations for Townsville

IDQ60701

Issued at 4:42 am EST Friday 24 November 2017 (issued every 10 minutes, with the page automatically refreshed every 10 minutes)

About coastal observations | Map of coastal stations | Coastal observations for QLD | Marine services | Other Formats
Station Details ID: 032040 Name: TOWNSVILLE AERO Lat: -19.25 Lon: 146.77 Height: 4.34 m
Data from the previous 72 hours. | See also: Recent months at Townsville
Date/Time
EST
Temp
°C
Wind Pressure Rain since
9am
mm
Weather Cloud Vis
km
Sea
Height
m
Swell
Dir  Spd
kts
Gust
kts
hPa Trend Height
m
Period
s
Dir
24/04:30am 23.4 SE 6 7 1011.0 - 0.0 - Clear 10 - - - -
24/04:00am 23.6 SE 7 8 1010.8 - 0.0 - - 10 - - - -
24/03:30am 23.8 ESE 6 8 1010.8 - 0.0 - Partly cloudy 10 - - - -
24/03:00am 24.0 SE 6 7 1010.7 R 0.0 - Mostly cloudy 10 - - - -
24/02:30am 24.2 SE 8 9 1010.7 - 0.0 - Partly cloudy 10 - - - -
24/02:00am 24.3 SE 7 9 1010.9 - 0.0 - Partly cloudy 10 - - - -
24/01:30am 24.7 SE 6 8 1011.1 - 0.0 - Partly cloudy 10 - - - -
24/01:00am 24.9 ESE 8 11 1011.3 - 0.0 - Partly cloudy 10 - - - -
24/12:30am 25.3 ESE 8 12 1011.6 - 0.0 - Partly cloudy 10 - - - -
24/12:00am 25.0 ESE 8 11 1011.6 R 0.0 - Cloudy 10 - - - -
 
Date/Time
EST
Temp
°C
Wind Pressure Rain since
9am
mm
Weather Cloud Vis
km
Sea
Height
m
Swell
Dir  Spd
kts
Gust
kts
hPa Trend Height
m
Period
s
Dir
23/11:30pm 25.3 E 7 9 1011.6 - 0.0 - Partly cloudy 10 - - - -
23/11:00pm 25.4 ESE 7 9 1011.6 - 0.0 - Partly cloudy 10 - - - -
23/10:30pm 25.4 E 7 9 1011.7 - 0.0 - Partly cloudy 10 - - - -
23/10:00pm 25.3 E 8 10 1011.5 - 0.0 - Partly cloudy 10 - - - -
23/09:30pm 25.3 E 8 11 1011.1 - 0.0 - Partly cloudy 10 - - - -
23/09:00pm 25.3 ENE 9 12 1011.2 F 0.0 - Mostly clear 10 - - - -
23/08:30pm 25.5 ENE 10 14 1011.1 - 0.0 - Partly cloudy 10 - - - -
23/08:00pm 25.5 E 9 13 1011.0 - 0.0 - Partly cloudy 10 - - - -
23/07:30pm 25.7 ENE 10 14 1010.4 - 0.0 - Partly cloudy 10 - - - -
23/07:00pm 25.7 E 9 13 1010.0 - 0.0 - Partly cloudy 10 - - - -
23/06:30pm 25.9 ENE 11 14 1009.7 - 0.0 - Partly cloudy 10 - - - -
23/06:00pm 26.1 ENE 10 13 1009.8 R 0.0 - Cloudy 10 - - - -
23/05:30pm 26.2 ENE 11 13 1009.5 - 0.0 - Partly cloudy 10 - - - -
23/05:00pm 26.4 ENE 10 14 1009.3 - 0.0 - Mostly clear 10 - - - -
23/04:30pm 26.4 ENE 13 16 1009.0 - 0.0 - Mostly clear 10 - - - -
23/04:00pm 26.6 ENE 15 18 1008.8 - 0.0 - Mostly clear 10 - - - -
23/03:30pm 27.3 ENE 16 19 1008.7 - 0.0 - Mostly clear 10 - - - -
23/03:00pm 27.7 ENE 17 21 1008.9 R 0.0 - Mostly clear 10 - - - -
23/02:30pm 27.9 ENE 16 21 1009.3 - 0.0 - Mostly clear 10 - - - -
23/02:00pm 28.5 ENE 17 21 1009.5 - 0.0 - Mostly clear 10 - - - -
23/01:30pm 28.1 ENE 16 20 1009.7 - 0.0 - Mostly clear 10 - - - -
23/01:00pm 27.0 ENE 16 21 1009.8 - 0.0 - Mostly clear 10 - - - -
23/12:30pm 28.0 NE 17 19 1010.2 - 0.0 - Mostly clear 10 - - - -
23/12:00pm 28.1 ENE 14 18 1010.4 S 0.0 - Mostly clear 10 - - - -
23/11:30am 27.8 ENE 14 17 1010.6 - 0.0 - Mostly clear 10 - - - -
23/11:00am 28.0 ENE 14 18 1010.9 - 0.0 - Partly cloudy 10 - - - -
23/10:30am 28.4 ENE 14 19 1010.9 - 0.0 - Mostly clear 10 - - - -
23/10:00am 28.1 E 11 17 1011.0 - 0.0 - Partly cloudy 10 - - - -
23/09:30am 27.1 ESE 13 18 1011.4 - 0.0 - Partly cloudy 10 - - - -
23/09:00am 25.9 ESE 9 14 1011.6 F 19.6 - Cloudy 10 - - - -
23/08:30am 25.2 SE 9 15 1011.5 - 19.6 - Partly cloudy 10 - - - -
23/08:00am 24.7 SE 11 14 1011.5 - 19.6 - Mostly clear 10 - - - -
23/07:30am 24.0 ESE 6 7 1011.4 - 19.6 - Partly cloudy 10 - - - -
23/07:00am 24.0 SE 6 8 1011.2 - 19.6 - Partly cloudy 10 - - - -
23/06:30am 23.3 CALM 0 4 1011.0 - 19.6 - Mostly clear 10 - - - -
23/06:00am 22.7 SSW 4 5 1010.3 R 19.6 - Mostly clear 10 - - - -
23/05:30am 22.6 S 5 5 1010.0 - 19.6 - - 10 - - - -
23/05:00am 22.5 WSW 5 5 1009.9 - 19.6 - - 10 - - - -
23/04:30am 23.0 SSE 1 4 1009.5 - 19.6 - Partly cloudy 10 - - - -
23/04:00am 22.9 SE 5 6 1009.0 - 19.6 - Partly cloudy 10 - - - -
23/03:30am 22.6 SE 6 7 1008.8 - 19.6 - Partly cloudy 10 - - - -
23/03:00am 22.6 ESE 5 8 1008.3 F 19.6 - - 10 - - - -
23/02:30am 22.8 SE 6 7 1008.6 - 19.6 - Partly cloudy 10 - - - -
23/02:00am 22.9 SE 7 14 1008.9 - 19.6 - Partly cloudy 10 - - - -
23/01:30am 22.8 ESE 7 9 1009.1 - 19.6 - Partly cloudy 10 - - - -
23/01:00am 22.8 SE 8 13 1009.3 - 19.6 - Partly cloudy 10 - - - -
23/12:30am 22.4 ESE 9 12 1009.5 - 19.2 - Partly cloudy 8 - - - -
23/12:04am 22.2 E 9 13 1010.0 - 17.4 - Partly cloudy 7 - - - -
23/12:00am 22.2 E 10 13 1010.0 F 17.0 Rain Cloudy 7 - - - -
 
Date/Time
EST
Temp
°C
Wind Pressure Rain since
9am
mm
Weather Cloud Vis
km
Sea
Height
m
Swell
Dir  Spd
kts
Gust
kts
hPa Trend Height
m
Period
s
Dir
22/11:30pm 21.2 ENE 17 20 1010.4 - 13.8 - Partly cloudy 5 - - - -
22/11:00pm 21.7 NE 13 17 1010.6 - 4.8 - Partly cloudy 6 - - - -
22/10:53pm 22.1 ENE 14 19 1010.5 - 4.6 - Partly cloudy 6 - - - -
22/10:43pm 22.7 ENE 15 20 1010.4 - 4.0 - Partly cloudy 10 - - - -
22/10:30pm 23.7 ESE 7 9 1010.3 - 4.0 - Partly cloudy 10 - - - -
22/10:13pm 23.2 E 7 10 1010.2 - 4.0 - Partly cloudy 10 - - - -
22/10:00pm 22.6 ENE 13 23 1010.2 - 3.6 - Partly cloudy 4 - - - -
22/09:52pm 22.4 ENE 13 23 1010.4 - 1.8 - Partly cloudy 6 - - - -
22/09:30pm 25.4 ESE 12 17 1010.0 - 0.0 - Partly cloudy 10 - - - -
22/09:00pm 25.3 ESE 9 12 1010.0 F 0.0 Drizzle Cloudy 10 - - - -
22/08:30pm 25.4 E 10 14 1010.0 - 0.0 - Partly cloudy 10 - - - -
22/08:00pm 25.6 ESE 12 17 1009.8 - 0.0 - Partly cloudy 10 - - - -
22/07:30pm 25.7 E 10 14 1009.7 - 0.0 - Partly cloudy 10 - - - -
22/07:00pm 25.7 E 12 16 1009.3 - 0.0 - Partly cloudy 10 - - - -
22/06:30pm 25.7 E 11 15 1009.1 - 0.0 - Partly cloudy 10 - - - -
22/06:00pm 26.0 E 14 18 1008.8 R 0.0 - Cloudy 10 - - - -
22/05:30pm 26.3 E 15 20 1008.4 - 0.0 - Mostly clear 10 - - - -
22/05:00pm 26.8 E 15 19 1008.1 - 0.0 - Mostly clear 10 - - - -
22/04:30pm 27.3 E 15 19 1008.0 - 0.0 - Mostly clear 10 - - - -
22/04:00pm 27.4 ENE 16 20 1007.9 - 0.0 - Mostly clear 10 - - - -
22/03:30pm 28.3 ENE 16 21 1008.1 - 0.0 - Mostly clear 10 - - - -
22/03:00pm 27.5 ENE 15 19 1008.3 R 0.0 - Cloudy 10 - - - -
22/02:30pm 28.0 ENE 16 20 1008.4 - 0.0 - Mostly clear 10 - - - -
22/02:00pm 28.5 ENE 17 21 1008.6 - 0.0 - Mostly clear 10 - - - -
22/01:30pm 28.4 ENE 18 21 1008.9 - 0.0 - Mostly clear 10 - - - -
22/01:00pm 29.3 ENE 16 20 1009.3 - 0.0 - Mostly clear 10 - - - -
22/12:30pm 29.0 ENE 17 21 1009.7 - 0.0 - Mostly clear 10 - - - -
22/12:00pm 29.6 ENE 17 21 1009.7 F 0.0 - Mostly clear 10 - - - -
22/11:30am 29.0 ENE 17 20 1010.2 - 0.0 - Partly cloudy 10 - - - -
22/11:00am 28.8 E 13 21 1010.3 - 0.0 - Partly cloudy 10 - - - -
22/10:30am 29.4 ESE 13 19 1010.4 - 0.0 - Mostly clear 10 - - - -
22/10:00am 28.2 ESE 12 17 1010.9 - 0.0 - Partly cloudy 10 - - - -
22/09:30am 27.0 ESE 15 21 1010.9 - 0.0 - Mostly clear 10 - - - -
22/09:00am 26.9 ESE 13 18 1011.0 F 0.2 - Cloudy 10 - - - -
22/08:30am 26.4 ESE 14 18 1010.8 - 0.2 - Mostly clear 10 - - - -
22/08:00am 26.6 ESE 12 16 1010.7 - 0.2 - Mostly clear 10 - - - -
22/07:30am 25.5 ESE 10 16 1010.6 - 0.2 - Mostly clear 10 - - - -
22/07:00am 24.8 SE 7 9 1010.7 - 0.0 - Mostly clear 10 - - - -
22/06:30am 24.3 SE 6 7 1010.5 - 0.0 - Mostly clear 10 - - - -
22/06:00am 23.5 SE 8 10 1009.9 S 0.0 - Cloudy 10 - - - -
22/05:30am 23.3 SE 8 9 1009.5 - 0.0 - Cloudy 10 - - - -
22/05:00am 23.3 SE 9 11 1009.6 - 0.0 - Cloudy 10 - - - -
22/04:30am 23.2 SE 10 15 1009.4 - 0.0 - Cloudy 10 - - - -
22/04:00am 23.3 ESE 14 20 1009.0 - 0.0 - Cloudy 10 - - - -
22/03:30am 23.6 SE 8 11 1008.9 - 0.0 - Partly cloudy 10 - - - -
22/03:00am 23.7 SE 8 10 1009.0 F 0.0 - Cloudy 10 - - - -
22/02:30am 23.8 SE 8 10 1009.2 - 0.0 - Partly cloudy 10 - - - -
22/02:00am 23.8 SE 8 10 1009.3 - 0.0 - - 10 - - - -
22/01:30am 23.9 SE 8 10 1009.6 - 0.0 - Partly cloudy 10 - - - -
22/01:00am 24.0 SE 9 11 1009.6 - 0.0 - Partly cloudy 10 - - - -
22/12:30am 24.1 SE 8 12 1010.1 - 0.0 - Partly cloudy 10 - - - -
22/12:00am 24.3 SE 11 15 1010.4 F 0.0 - Cloudy 10 - - - -
 
Date/Time
EST
Temp
°C
Wind Pressure Rain since
9am
mm
Weather Cloud Vis
km
Sea
Height
m
Swell
Dir  Spd
kts
Gust
kts
hPa Trend Height
m
Period
s
Dir
21/11:30pm 24.4 ESE 9 14 1010.5 - 0.0 - Partly cloudy 10 - - - -
21/11:00pm 24.3 ESE 8 12 1010.7 - 0.0 - Partly cloudy 10 - - - -
21/10:30pm 24.2 ESE 8 11 1011.2 - 0.0 - Partly cloudy 10 - - - -
21/10:00pm 24.1 ESE 6 8 1011.4 - 0.0 - Partly cloudy 10 - - - -
21/09:30pm 24.5 ESE 9 12 1011.6 - 0.0 - Partly cloudy 10 - - - -
21/09:00pm 24.8 ESE 9 12 1012.0 F 0.0 - Cloudy 10 - - - -
21/08:30pm 24.9 ESE 8 10 1011.9 - 0.0 - Cloudy 10 - - - -
21/08:00pm 25.0 SE 9 13 1011.6 - 0.0 - Partly cloudy 10 - - - -
21/07:30pm 25.3 ESE 12 19 1011.3 - 0.0 - Partly cloudy 10 - - - -
21/07:00pm 24.9 ESE 10 16 1011.1 - 0.0 - Partly cloudy 10 - - - -
21/06:30pm 24.5 ENE 14 20 1010.8 - 0.0 - Partly cloudy 10 - - - -
21/06:00pm 25.8 E 14 19 1010.6 F 0.0 - Cloudy 10 - - - -
21/05:30pm 25.9 E 15 18 1010.3 - 0.0 - Mostly clear 10 - - - -
21/05:00pm 26.0 E 15 21 1010.2 - 0.0 - Mostly clear 10 - - - -
21/04:30pm 26.0 E 15 19 1010.1 - 0.0 - Mostly clear 10 - - - -
21/04:00pm 26.0 E 15 19 1010.0 - 0.0 - Mostly clear 10 - - - -
21/03:30pm 25.4 E 13 18 1010.5 - 0.0 - Mostly clear 10 - - - -
21/03:00pm 25.3 ENE 16 19 1010.5 R 0.0 - Cloudy 10 - - - -
21/02:30pm 26.2 ENE 16 20 1010.8 - 0.0 - Mostly clear 10 - - - -
21/02:00pm 24.5 ENE 14 20 1011.6 - 0.0 - Mostly clear 10 - - - -
21/01:30pm 23.5 ENE 16 23 1012.0 - 0.0 Showers Mostly clear 8 - - - -
21/01:16pm 25.7 NE 19 26 1012.1 - 0.0 Showers Mostly clear 9 - - - -
21/01:00pm 25.8 ENE 17 21 1012.0 - 0.0 - Mostly clear 10 - - - -
21/12:44pm 25.9 ENE 20 26 1012.2 - 0.0 - Partly cloudy 10 - - - -
21/12:30pm 27.1 E 13 18 1012.1 - 0.0 - Mostly clear 10 - - - -
21/12:00pm 26.9 ESE 12 17 1012.2 R 0.0 - Cloudy 10 - - - -
21/11:30am 26.4 SE 9 13 1012.5 - 0.0 - Mostly clear 10 - - - -
21/11:00am 25.9 SE 10 16 1012.5 - 0.0 - Mostly clear 10 - - - -
21/10:30am 25.5 SE 9 15 1013.0 - 0.0 - Mostly clear 10 - - - -
21/10:00am 24.6 SE 10 14 1013.0 - 0.0 - Mostly clear 10 - - - -
21/09:30am 24.6 SE 12 16 1013.3 - 0.0 Showers Partly cloudy 10 - - - -
21/09:00am 24.3 ESE 16 20 1013.0 R 0.0 - Mostly cloudy 10 - - - -
21/08:30am 24.8 ESE 17 22 1012.9 - 0.0 - Partly cloudy 10 - - - -
21/08:00am 26.7 SE 15 19 1012.4 - 0.0 - Partly cloudy 10 - - - -
21/07:30am 25.2 SE 11 15 1012.5 - 0.0 - Mostly clear 10 - - - -
21/07:00am 24.9 ESE 11 15 1012.2 - 0.0 - Mostly clear 10 - - - -
21/06:30am 24.5 SE 10 15 1011.7 - 0.0 - Mostly clear 10 - - - -
21/06:00am 24.1 SE 11 15 1011.4 F 0.0 - Mostly cloudy 10 - - - -
21/05:30am 23.8 ESE 11 15 1010.9 - 0.0 - Partly cloudy 10 - - - -
21/05:00am 23.3 SE 12 17 1011.1 - 0.0 - Partly cloudy 10 - - - -

Other Formats:

Comma delimited format used in spreadsheet applications
http://www.bom.gov.au/fwo/IDQ60701/IDQ60701.94294.axf

JavaScript Object Notation format (JSON) in row-major order
http://www.bom.gov.au/fwo/IDQ60701/IDQ60701.94294.json